createdAt,value
2023-02-24T00:02:06.932Z,38.91
2023-02-24T00:04:42.355Z,39.18
2023-02-24T00:07:14.106Z,39.18
2023-02-24T00:09:45.507Z,39.98
2023-02-24T00:12:17.011Z,39.91
2023-02-24T00:14:47.006Z,37.94
2023-02-24T00:17:16.019Z,40.05
2023-02-24T00:19:45.756Z,39.36
2023-02-24T00:22:15.059Z,39.26
2023-02-24T00:24:44.307Z,39.42
2023-02-24T00:27:13.249Z,39.91
2023-02-24T00:29:47.181Z,40.24
2023-02-24T00:32:16.329Z,38.90
2023-02-24T00:34:47.553Z,38.87
2023-02-24T00:37:16.924Z,38.77
2023-02-24T00:39:46.583Z,37.96
2023-02-24T00:42:15.793Z,40.56
2023-02-24T00:44:48.986Z,40.01
2023-02-24T00:47:18.680Z,39.34
2023-02-24T00:49:49.221Z,41.46
2023-02-24T00:52:22.338Z,40.76
2023-02-24T00:54:52.012Z,41.23
2023-02-24T00:57:22.222Z,42.43
2023-02-24T00:59:53.222Z,42.28
2023-02-24T01:02:22.337Z,40.36
2023-02-24T01:04:52.563Z,40.06
2023-02-24T01:07:21.920Z,41.80
2023-02-24T01:09:52.622Z,40.54
2023-02-24T01:12:50.966Z,39.80
2023-02-24T01:15:22.586Z,40.40
2023-02-24T01:17:51.894Z,41.53
2023-02-24T01:20:20.850Z,42.31
2023-02-24T01:22:57.926Z,41.14
2023-02-24T01:25:27.826Z,41.96
2023-02-24T01:27:56.898Z,40.44
2023-02-24T01:30:25.961Z,39.64
2023-02-24T01:32:55.500Z,40.49
2023-02-24T01:35:24.483Z,41.73
2023-02-24T01:37:54.645Z,41.64
2023-02-24T01:40:27.467Z,42.01
2023-02-24T01:42:56.677Z,41.60
2023-02-24T01:45:30.040Z,39.77
2023-02-24T01:48:04.477Z,41.38
2023-02-24T01:50:36.868Z,41.86
2023-02-24T01:53:09.348Z,41.72
2023-02-24T01:55:48.064Z,41.22
2023-02-24T02:39:47.575Z,35.36
2023-02-24T02:42:31.636Z,34.69
2023-02-24T02:45:38.492Z,34.19
2023-02-24T02:48:29.591Z,34.58
2023-02-24T02:51:26.176Z,33.47
2023-02-24T02:54:34.168Z,33.22
2023-02-24T02:57:35.057Z,31.02
2023-02-24T03:00:14.443Z,32.17
2023-02-24T03:02:48.619Z,32.20
2023-02-24T03:05:22.390Z,32.52
2023-02-24T03:07:55.815Z,31.70
2023-02-24T03:10:29.115Z,32.51
2023-02-24T03:13:05.701Z,32.49
2023-02-24T03:15:35.538Z,30.54
2023-02-24T03:18:13.285Z,29.82
2023-02-24T03:20:52.800Z,30.23
2023-02-24T03:23:32.247Z,30.74
2023-02-24T03:26:22.985Z,30.62
2023-02-24T03:29:25.219Z,30.46
2023-02-24T03:32:04.279Z,30.71
2023-02-24T03:34:56.728Z,29.47
2023-02-24T03:37:29.699Z,30.65
2023-02-24T03:40:15.740Z,30.65
2023-02-24T03:42:49.783Z,30.68
2023-02-24T03:45:19.539Z,29.42
2023-02-24T03:47:50.160Z,29.51
2023-02-24T03:50:22.969Z,29.39
2023-02-24T03:53:31.855Z,31.51
2023-02-24T03:56:16.982Z,30.52
2023-02-24T03:59:05.886Z,30.18
2023-02-24T04:02:07.779Z,28.86
2023-02-24T04:04:56.063Z,28.01
2023-02-24T04:08:11.239Z,30.39
2023-02-24T04:10:53.386Z,28.78
2023-02-24T04:13:53.418Z,29.56
2023-02-24T04:16:37.755Z,28.87
2023-02-24T04:19:19.432Z,29.78
2023-02-24T04:21:52.117Z,28.46
2023-02-24T04:24:32.477Z,29.84
2023-02-24T04:27:07.858Z,31.41
2023-02-24T04:29:49.963Z,32.01
2023-02-24T04:32:23.964Z,31.82
2023-02-24T04:34:54.038Z,30.22
2023-02-24T04:37:23.968Z,29.77
2023-02-24T04:39:53.236Z,31.49
2023-02-24T04:42:29.293Z,32.55
2023-02-24T04:44:59.610Z,33.01
2023-02-24T04:47:29.957Z,32.64
2023-02-24T04:50:00.378Z,32.41
2023-02-24T04:52:30.182Z,33.14
2023-02-24T04:54:59.825Z,34.14
2023-02-24T04:57:28.728Z,31.85
2023-02-24T05:00:00.347Z,32.21
2023-02-24T05:02:31.868Z,33.54
2023-02-24T05:05:00.905Z,32.99
2023-02-24T05:07:30.053Z,33.63
2023-02-24T05:09:59.501Z,32.84
2023-02-24T05:12:30.505Z,33.40
2023-02-24T05:15:02.227Z,32.04
2023-02-24T05:17:32.638Z,33.29
2023-02-24T05:20:19.901Z,33.97
2023-02-24T05:22:53.457Z,29.95
2023-02-24T05:25:22.982Z,33.80
2023-02-24T05:27:52.181Z,33.71
2023-02-24T05:30:21.471Z,33.28
2023-02-24T05:32:50.356Z,31.80
2023-02-24T05:35:20.492Z,32.91
2023-02-24T05:37:50.421Z,33.20
2023-02-24T05:40:24.253Z,30.05
2023-02-24T05:42:53.425Z,32.00
2023-02-24T05:45:22.322Z,31.84
2023-02-24T05:47:51.447Z,30.28
2023-02-24T05:50:22.712Z,31.43
2023-02-24T05:52:52.001Z,29.34
2023-02-24T05:55:21.499Z,30.38
2023-02-24T05:57:51.886Z,29.69
2023-02-24T06:00:21.355Z,26.61
2023-02-24T06:02:51.386Z,26.93
2023-02-24T06:05:27.086Z,27.82
2023-02-24T06:08:07.594Z,27.70
2023-02-24T06:10:37.200Z,26.58
2023-02-24T06:13:08.352Z,28.92
2023-02-24T06:15:38.513Z,25.91
2023-02-24T06:18:08.619Z,29.19
2023-02-24T06:20:38.085Z,26.08
2023-02-24T06:23:07.226Z,26.95
2023-02-24T06:25:36.496Z,25.42
2023-02-24T06:28:05.762Z,24.28
2023-02-24T06:30:35.012Z,22.36
2023-02-24T06:33:03.933Z,25.09
2023-02-24T06:35:35.786Z,24.42
2023-02-24T06:38:05.404Z,21.20
2023-02-24T06:40:34.550Z,21.59
2023-02-24T06:43:03.904Z,22.01
2023-02-24T06:45:33.165Z,24.02
2023-02-24T06:48:04.437Z,23.12
2023-02-24T06:50:33.807Z,21.17
2023-02-24T06:53:03.707Z,19.03
2023-02-24T06:55:36.583Z,21.01
2023-02-24T06:58:06.180Z,22.95
2023-02-24T07:00:39.858Z,23.66
2023-02-24T07:03:17.817Z,23.88
2023-02-24T07:05:55.113Z,22.94
2023-02-24T07:08:28.226Z,19.26
2023-02-24T07:11:00.869Z,19.00
2023-02-24T07:13:32.813Z,17.89
2023-02-24T07:16:08.361Z,21.15
2023-02-24T07:18:42.582Z,22.41
2023-02-24T07:21:13.109Z,21.80
2023-02-24T07:23:44.624Z,22.21
2023-02-24T07:26:20.175Z,20.58
2023-02-24T07:28:49.281Z,21.26
2023-02-24T07:31:22.082Z,21.54
2023-02-24T07:33:57.790Z,20.93
2023-02-24T07:36:31.047Z,20.35
2023-02-24T07:39:00.593Z,23.03
2023-02-24T07:41:31.304Z,20.28
2023-02-24T07:44:04.191Z,21.74
2023-02-24T07:46:33.434Z,23.45
2023-02-24T07:49:03.966Z,22.09
2023-02-24T07:51:33.798Z,22.00
2023-02-24T07:54:04.346Z,24.94
2023-02-24T07:56:34.220Z,21.80
2023-02-24T07:59:09.140Z,19.41
2023-02-24T08:01:50.580Z,21.50
2023-02-24T08:04:24.290Z,21.31
2023-02-24T08:06:57.385Z,20.66
2023-02-24T08:09:47.252Z,21.36
2023-02-24T08:12:24.974Z,20.78
2023-02-24T08:14:54.944Z,22.93
2023-02-24T08:17:27.898Z,21.98
2023-02-24T08:20:16.036Z,23.99
2023-02-24T08:22:53.016Z,18.08
2023-02-24T08:25:26.228Z,24.08
2023-02-24T08:28:08.041Z,22.00
2023-02-24T08:30:41.045Z,20.49
2023-02-24T08:33:12.179Z,22.65
2023-02-24T08:35:45.716Z,23.29
2023-02-24T08:38:19.092Z,22.75
2023-02-24T08:40:55.790Z,18.32
2023-02-24T08:43:34.044Z,21.24
2023-02-24T08:46:22.448Z,23.04
2023-02-24T08:48:57.604Z,18.32
2023-02-24T08:51:36.432Z,19.67
2023-02-24T08:54:16.388Z,18.99
2023-02-24T08:56:50.056Z,21.08
2023-02-24T08:59:39.210Z,20.41
2023-02-24T09:02:24.962Z,19.27
2023-02-24T09:05:00.329Z,18.86
2023-02-24T09:07:43.171Z,21.32
2023-02-24T09:10:19.512Z,19.85
2023-02-24T09:12:50.117Z,21.42
2023-02-24T09:15:19.422Z,19.30
2023-02-24T09:17:48.307Z,20.59
2023-02-24T09:20:43.198Z,22.03
2023-02-24T09:23:20.926Z,21.81
2023-02-24T09:25:56.504Z,21.36
2023-02-24T09:28:30.118Z,22.64
2023-02-24T09:31:05.729Z,24.49
2023-02-24T09:33:43.423Z,22.33
2023-02-24T09:36:21.596Z,24.46
2023-02-24T09:39:02.480Z,25.14
2023-02-24T09:42:03.505Z,23.81
2023-02-24T09:44:45.575Z,25.74
2023-02-24T09:47:58.389Z,24.89
2023-02-24T09:51:02.699Z,24.38
2023-02-24T09:53:50.465Z,24.31
2023-02-24T09:56:25.052Z,24.65
2023-02-24T09:59:35.756Z,24.70
2023-02-24T10:02:32.115Z,25.46
2023-02-24T10:05:39.874Z,26.63
2023-02-24T10:08:26.321Z,26.27
2023-02-24T10:11:08.457Z,27.00
2023-02-24T10:14:03.485Z,25.13
2023-02-24T10:16:43.704Z,27.01
2023-02-24T10:19:24.543Z,28.00
2023-02-24T10:22:31.846Z,27.55
2023-02-24T10:25:37.043Z,27.50
2023-02-24T10:28:37.126Z,28.58
2023-02-24T10:31:27.353Z,28.55
2023-02-24T10:34:07.508Z,28.02
2023-02-24T10:36:37.835Z,28.86
2023-02-24T10:39:28.091Z,27.44
2023-02-24T10:42:16.426Z,27.03
2023-02-24T10:45:02.197Z,27.24
2023-02-24T10:47:32.750Z,26.07
2023-02-24T10:50:04.468Z,26.58
2023-02-24T10:52:59.459Z,26.60
2023-02-24T10:55:45.382Z,26.69
2023-02-24T10:58:57.507Z,26.03
2023-02-24T11:01:53.004Z,27.30
2023-02-24T11:04:33.915Z,26.90
2023-02-24T11:07:11.353Z,25.54
2023-02-24T11:09:54.545Z,27.41
2023-02-24T11:12:45.365Z,26.73
2023-02-24T11:15:46.422Z,27.46
2023-02-24T11:18:28.870Z,29.33
2023-02-24T11:21:19.549Z,26.85
2023-02-24T11:23:57.695Z,28.99
2023-02-24T11:26:35.698Z,28.21
2023-02-24T11:29:46.394Z,27.71
2023-02-24T11:32:44.734Z,28.97
2023-02-24T11:35:45.945Z,29.52
2023-02-24T11:38:30.554Z,28.67
2023-02-24T11:41:33.055Z,29.88
2023-02-24T11:44:36.190Z,27.96
2023-02-24T11:47:14.308Z,30.87
2023-02-24T11:49:55.699Z,31.74
2023-02-24T11:52:32.924Z,30.19
2023-02-24T11:55:06.489Z,30.59
2023-02-24T11:57:47.263Z,30.74
2023-02-24T12:00:21.487Z,32.35
2023-02-24T12:02:56.740Z,32.29
2023-02-24T12:05:38.588Z,32.75
2023-02-24T12:08:15.355Z,34.83
2023-02-24T12:10:51.727Z,33.69
2023-02-24T12:13:40.889Z,34.13
2023-02-24T12:16:42.681Z,34.47
2023-02-24T12:20:07.307Z,35.27
2023-02-24T12:22:52.854Z,35.24
2023-02-24T12:25:28.844Z,36.24
2023-02-24T12:28:19.390Z,36.49
2023-02-24T12:31:14.568Z,35.75
2023-02-24T12:34:04.832Z,36.12
2023-02-24T12:37:10.984Z,36.19
2023-02-24T12:40:02.733Z,36.08
2023-02-24T12:42:43.735Z,36.35
2023-02-24T12:45:23.762Z,36.97
2023-02-24T12:48:20.479Z,36.77
2023-02-24T12:50:53.878Z,36.79
2023-02-24T12:54:00.876Z,36.32
2023-02-24T12:56:43.665Z,36.26
2023-02-24T12:59:19.017Z,36.80
2023-02-24T13:02:01.801Z,36.90
2023-02-24T13:04:39.723Z,37.65
2023-02-24T13:07:29.992Z,37.36
2023-02-24T13:10:13.293Z,37.41
2023-02-24T13:13:12.093Z,36.51
2023-02-24T13:15:55.202Z,36.10
2023-02-24T13:18:42.623Z,36.42
2023-02-24T13:21:25.756Z,37.56
2023-02-24T13:24:00.652Z,37.01
2023-02-24T13:26:32.960Z,37.31
2023-02-24T13:29:15.545Z,37.10
2023-02-24T13:31:53.750Z,36.60
2023-02-24T13:34:33.783Z,37.62
2023-02-24T13:37:03.290Z,37.37
2023-02-24T13:39:38.093Z,37.26
2023-02-24T13:42:29.361Z,37.53
2023-02-24T13:45:19.587Z,37.52
2023-02-24T13:48:10.070Z,37.19
2023-02-24T13:50:59.757Z,38.47
2023-02-24T13:53:59.826Z,40.59
2023-02-24T13:56:42.065Z,42.71
2023-02-24T13:59:40.265Z,43.37
2023-02-24T14:02:12.346Z,44.08
2023-02-24T14:04:54.654Z,43.67
2023-02-24T14:07:31.216Z,44.53
2023-02-24T14:10:31.269Z,42.23
2023-02-24T14:13:30.705Z,43.02
2023-02-24T14:16:01.238Z,41.58
2023-02-24T14:18:31.832Z,43.07
2023-02-24T14:21:01.194Z,41.93
2023-02-24T14:23:32.602Z,44.11
2023-02-24T14:26:19.890Z,43.70
2023-02-24T14:28:58.588Z,44.87
2023-02-24T14:31:29.362Z,45.73
2023-02-24T14:34:04.610Z,43.86
2023-02-24T14:36:40.531Z,43.51
2023-02-24T14:39:23.816Z,43.73
2023-02-24T14:42:05.369Z,43.95
2023-02-24T14:44:42.888Z,44.72
2023-02-24T14:47:15.442Z,44.99
2023-02-24T14:49:56.810Z,45.68
2023-02-24T14:52:36.851Z,45.57
2023-02-24T14:55:27.254Z,44.67
2023-02-24T14:58:15.327Z,46.03
2023-02-24T15:01:25.546Z,44.88
2023-02-24T15:04:00.818Z,45.42
2023-02-24T15:06:41.635Z,45.01
2023-02-24T15:09:44.022Z,45.53
2023-02-24T15:12:18.699Z,46.50
2023-02-24T15:14:56.283Z,45.24
2023-02-24T15:17:26.075Z,44.68
2023-02-24T15:19:57.810Z,44.39
2023-02-24T15:22:34.174Z,43.78
2023-02-24T15:25:33.771Z,42.70
2023-02-24T15:28:35.948Z,43.04
2023-02-24T15:31:09.785Z,43.90
2023-02-24T15:33:46.627Z,44.26
2023-02-24T15:36:30.392Z,44.11
2023-02-24T15:39:11.228Z,44.54
2023-02-24T15:41:42.586Z,45.16
2023-02-24T15:44:32.804Z,44.98
2023-02-24T15:47:14.636Z,45.67
2023-02-24T15:49:44.347Z,45.04
2023-02-24T15:52:13.300Z,44.94
2023-02-24T15:54:45.247Z,45.38
2023-02-24T15:57:17.862Z,44.99
2023-02-24T15:59:50.219Z,45.37
2023-02-24T16:02:21.810Z,45.26
2023-02-24T16:04:53.217Z,46.20
2023-02-24T16:07:30.545Z,46.62
2023-02-24T16:10:02.336Z,46.08
2023-02-24T16:12:35.208Z,45.70
2023-02-24T16:15:08.311Z,46.33
2023-02-24T16:17:43.226Z,46.82
2023-02-24T16:20:17.502Z,46.16
2023-02-24T16:22:47.741Z,45.73
2023-02-24T16:25:18.417Z,45.67
2023-02-24T16:27:47.427Z,45.42
2023-02-24T16:30:22.633Z,45.23
2023-02-24T16:32:53.240Z,44.63
2023-02-24T16:35:23.337Z,43.98
2023-02-24T16:37:52.532Z,44.30
2023-02-24T16:40:32.504Z,43.23
2023-02-24T16:43:02.071Z,42.95
2023-02-24T16:45:32.237Z,43.76
2023-02-24T16:48:04.018Z,44.22
2023-02-24T16:50:37.150Z,44.22
2023-02-24T16:53:06.681Z,43.03
2023-02-24T16:55:36.176Z,44.39
2023-02-24T16:58:04.937Z,44.15
2023-02-24T17:00:34.525Z,43.70
2023-02-24T17:03:08.200Z,43.38
2023-02-24T17:05:37.946Z,42.45
2023-02-24T17:08:07.020Z,42.39
2023-02-24T17:10:40.170Z,42.66
2023-02-24T17:13:09.168Z,42.06
2023-02-24T17:15:37.837Z,42.02
2023-02-24T17:18:08.353Z,41.46
2023-02-24T17:20:39.952Z,41.57
2023-02-24T17:23:09.556Z,41.99
2023-02-24T17:25:38.809Z,41.24
2023-02-24T17:28:09.202Z,40.96
2023-02-24T17:30:40.572Z,41.86
2023-02-24T17:33:09.412Z,42.22
2023-02-24T17:35:38.207Z,42.65
2023-02-24T17:38:15.139Z,42.17
2023-02-24T17:40:45.929Z,41.89
2023-02-24T17:43:15.032Z,42.07
2023-02-24T17:45:47.610Z,41.99
2023-02-24T17:48:17.630Z,41.29
2023-02-24T17:50:47.877Z,40.93
2023-02-24T17:53:17.543Z,41.48
2023-02-24T17:56:01.488Z,40.75
2023-02-24T17:58:31.597Z,40.74
2023-02-24T18:01:03.199Z,40.12
2023-02-24T18:03:37.446Z,40.14
2023-02-24T18:06:12.365Z,40.68
2023-02-24T18:08:42.503Z,40.61
2023-02-24T18:11:17.869Z,40.68
2023-02-24T18:13:49.085Z,40.49
2023-02-24T18:16:18.467Z,40.60
2023-02-24T18:18:47.566Z,40.46
2023-02-24T18:21:16.852Z,40.28
2023-02-24T18:23:46.290Z,40.10
2023-02-24T18:26:16.695Z,40.17
2023-02-24T18:28:46.230Z,39.97
2023-02-24T18:31:20.266Z,40.04
2023-02-24T18:33:49.826Z,39.99
2023-02-24T18:36:19.559Z,39.93
2023-02-24T18:38:49.311Z,39.45
2023-02-24T18:41:22.713Z,39.47
2023-02-24T18:43:57.714Z,39.80
2023-02-24T18:46:28.257Z,39.28
2023-02-24T18:48:58.398Z,40.03
2023-02-24T18:51:28.097Z,39.98
2023-02-24T18:54:04.131Z,39.39
2023-02-24T18:56:36.089Z,41.01
2023-02-24T18:59:05.645Z,41.94
2023-02-24T19:01:40.364Z,40.75
2023-02-24T19:04:10.799Z,43.46
2023-02-24T19:06:42.713Z,45.04
2023-02-24T19:09:13.128Z,44.71
2023-02-24T19:11:43.990Z,47.31
2023-02-24T19:14:14.918Z,47.57
2023-02-24T19:16:43.990Z,46.10
2023-02-24T19:19:17.739Z,44.56
2023-02-24T19:21:47.730Z,44.17
2023-02-24T19:24:18.192Z,44.27
2023-02-24T19:26:48.691Z,44.98
2023-02-24T19:29:18.295Z,41.71
2023-02-24T19:31:47.584Z,41.28
2023-02-24T19:34:16.817Z,41.43
2023-02-24T19:36:45.604Z,42.52
2023-02-24T19:39:17.422Z,41.97
2023-02-24T19:41:49.539Z,42.89
2023-02-24T19:44:19.214Z,41.39
2023-02-24T19:46:48.067Z,42.28
2023-02-24T19:49:17.112Z,41.48
2023-02-24T19:51:48.149Z,41.75
2023-02-24T19:54:17.937Z,43.45
2023-02-24T19:56:46.700Z,42.78
2023-02-24T19:59:16.197Z,42.01
2023-02-24T20:01:45.000Z,41.10
2023-02-24T20:04:14.326Z,42.96
2023-02-24T20:06:44.628Z,42.51
2023-02-24T20:09:17.081Z,42.24
2023-02-24T20:11:47.210Z,41.68
2023-02-24T20:14:18.027Z,42.36
2023-02-24T20:16:47.768Z,42.10
2023-02-24T20:19:20.198Z,41.50
2023-02-24T20:21:49.221Z,41.41
2023-02-24T20:24:19.561Z,41.56
2023-02-24T20:26:50.639Z,40.57
2023-02-24T20:29:21.932Z,39.17
2023-02-24T20:31:52.094Z,39.57
2023-02-24T20:34:21.918Z,40.14
2023-02-24T20:36:51.060Z,40.45
2023-02-24T20:39:20.503Z,40.10
2023-02-24T20:41:51.822Z,39.87
2023-02-24T20:44:21.372Z,41.87
2023-02-24T20:46:50.275Z,42.02
2023-02-24T20:49:19.171Z,42.86
2023-02-24T20:51:48.154Z,43.91
2023-02-24T20:54:17.882Z,43.91
2023-02-24T20:56:47.690Z,44.60
2023-02-24T20:59:23.414Z,43.89
2023-02-24T21:01:53.257Z,43.25
2023-02-24T21:04:22.979Z,44.09
2023-02-24T21:06:53.188Z,44.03
2023-02-24T21:09:22.309Z,42.56
2023-02-24T21:11:51.080Z,44.78
2023-02-24T21:14:20.285Z,45.81
2023-02-24T21:16:50.649Z,45.16
2023-02-24T21:19:21.443Z,46.04
2023-02-24T21:21:50.560Z,44.91
2023-02-24T21:24:19.301Z,45.22
2023-02-24T21:26:48.606Z,45.84
2023-02-24T21:29:17.607Z,45.83
2023-02-24T21:31:46.819Z,46.06
2023-02-24T21:34:18.148Z,45.17
2023-02-24T21:36:47.659Z,46.06
2023-02-24T21:39:16.720Z,46.29
2023-02-24T21:41:46.325Z,46.18
2023-02-24T21:44:16.304Z,45.65
2023-02-24T21:46:46.547Z,45.97
2023-02-24T21:49:16.467Z,44.96
2023-02-24T21:51:49.855Z,42.42
2023-02-24T21:54:19.407Z,43.32
2023-02-24T21:56:48.628Z,42.43
2023-02-24T21:59:17.567Z,42.22
2023-02-24T22:01:48.025Z,44.01
2023-02-24T22:04:20.071Z,43.67
2023-02-24T22:06:49.714Z,41.92
2023-02-24T22:09:21.390Z,41.57
2023-02-24T22:11:51.475Z,42.08
2023-02-24T22:14:20.646Z,42.27
2023-02-24T22:16:50.142Z,42.56
2023-02-24T22:19:20.686Z,42.08
2023-02-24T22:21:49.714Z,39.49
2023-02-24T22:24:20.402Z,41.91
2023-02-24T22:26:49.492Z,40.94
2023-02-24T22:29:18.379Z,40.33
2023-02-24T22:31:50.019Z,39.99
2023-02-24T22:34:19.157Z,40.27
2023-02-24T22:36:48.019Z,39.74
2023-02-24T22:39:18.431Z,39.76
2023-02-24T22:41:48.405Z,38.52
2023-02-24T22:44:20.327Z,39.16
2023-02-24T22:46:50.455Z,39.12
2023-02-24T22:49:19.616Z,40.86
2023-02-24T22:51:48.644Z,40.28
2023-02-24T22:54:17.908Z,41.61
2023-02-24T22:56:48.329Z,40.29
2023-02-24T22:59:18.162Z,40.24
2023-02-24T23:01:47.381Z,40.52
2023-02-24T23:04:25.479Z,40.41
2023-02-24T23:06:56.080Z,42.05
2023-02-24T23:09:25.085Z,40.92
2023-02-24T23:11:54.906Z,39.09
2023-02-24T23:14:24.122Z,38.44
2023-02-24T23:16:56.534Z,37.99
2023-02-24T23:19:26.011Z,38.21
2023-02-24T23:21:57.311Z,41.00
2023-02-24T23:24:26.678Z,39.38
2023-02-24T23:26:58.544Z,39.35
2023-02-24T23:29:28.644Z,39.28
2023-02-24T23:31:58.531Z,39.25
2023-02-24T23:34:27.795Z,40.24
2023-02-24T23:36:56.573Z,39.07
2023-02-24T23:39:26.212Z,38.61
2023-02-24T23:41:57.765Z,38.68
2023-02-24T23:44:27.236Z,36.53
2023-02-24T23:46:59.072Z,38.59
2023-02-24T23:49:39.093Z,37.70
2023-02-24T23:52:15.316Z,36.35
2023-02-24T23:54:44.650Z,37.52
2023-02-24T23:57:13.827Z,36.49
2023-02-24T23:59:43.306Z,36.71
